createdAt,value
2018-10-12T20:11:05.267Z,23.5
2018-10-12T20:12:06.867Z,23.2
2018-10-12T20:13:08.182Z,23.2
2018-10-12T20:14:09.617Z,23
2018-10-12T20:15:13.455Z,22.9
2018-10-12T20:16:15.746Z,22.9
2018-10-12T20:17:22.619Z,22.9
2018-10-12T20:18:37.154Z,22.8
2018-10-12T20:19:38.864Z,22.8
2018-10-12T20:20:42.326Z,22.9
2018-10-12T20:21:43.594Z,23
2018-10-12T20:22:45.066Z,22.8
2018-10-12T20:23:55.729Z,22.8
2018-10-12T20:24:58.963Z,22.7
2018-10-12T20:26:00.214Z,22.6
2018-10-12T20:27:04.313Z,22.6
2018-10-12T20:28:06.412Z,22.5
2018-10-12T20:29:13.156Z,22.4
2018-10-12T20:30:15.820Z,22.4
2018-10-12T20:31:21.111Z,22.2
2018-10-12T20:32:22.433Z,22.4
2018-10-12T20:33:26.849Z,22.3
2018-10-12T20:34:28.311Z,22.3
2018-10-12T20:35:29.897Z,22.3
2018-10-12T20:36:33.445Z,22.3
2018-10-12T20:37:34.805Z,22.2
2018-10-12T20:38:43.318Z,22.3
2018-10-12T20:39:44.797Z,22.2
2018-10-12T20:40:50.673Z,22.2
2018-10-12T20:41:55.093Z,22.3
2018-10-12T20:42:59.111Z,22.4
2018-10-12T20:44:03.654Z,22.3
2018-10-12T20:45:07.269Z,22.2
2018-10-12T20:46:09.081Z,22.3
2018-10-12T20:47:10.293Z,22.2
2018-10-12T20:48:13.224Z,22.2
2018-10-12T20:49:14.870Z,22.2
2018-10-12T20:50:18.230Z,22.1
2018-10-12T20:51:19.653Z,22.1
2018-10-12T20:52:21.176Z,22.2
2018-10-12T20:53:22.396Z,22.2
2018-10-12T20:54:23.808Z,22.2
2018-10-12T20:55:27.734Z,22.2
2018-10-12T20:56:29.437Z,22.2
2018-10-12T20:57:39.230Z,22.1
2018-10-12T20:58:40.624Z,22.1
2018-10-12T20:59:42.103Z,22.1
2018-10-12T21:00:43.340Z,22
2018-10-12T21:01:46.688Z,22.1
2018-10-12T21:02:47.931Z,22
2018-10-12T21:03:49.172Z,22
2018-10-12T21:04:50.634Z,22.1
2018-10-12T21:05:51.809Z,22.1
2018-10-12T21:06:55.830Z,22
2018-10-12T21:07:57.041Z,22
2018-10-12T21:08:59.321Z,22
2018-10-12T21:10:00.543Z,22
2018-10-12T21:11:01.840Z,22.1
2018-10-12T21:12:03.062Z,22
2018-10-12T21:13:06.694Z,22
2018-10-12T21:14:08.155Z,22
2018-10-12T21:15:09.596Z,22
2018-10-12T21:16:11.097Z,22.1
2018-10-12T21:17:13.357Z,22.1
2018-10-12T21:18:14.628Z,22.2
2018-10-12T21:19:15.939Z,22.2
2018-10-12T21:20:17.295Z,22.1
2018-10-12T21:21:18.678Z,22.1
2018-10-12T21:22:20.016Z,22.1
2018-10-12T21:23:21.258Z,22
2018-10-12T21:24:25.566Z,22
2018-10-12T21:25:26.792Z,22
2018-10-12T21:26:28.011Z,22
2018-10-12T21:27:31.804Z,22
2018-10-12T21:28:33.459Z,22
2018-10-12T21:29:34.952Z,21.9
2018-10-12T21:30:36.162Z,21.9
2018-10-12T21:31:37.650Z,21.9
2018-10-12T21:32:39.261Z,21.9
2018-10-12T21:33:41.451Z,21.9
2018-10-12T21:34:42.712Z,21.9
2018-10-12T21:35:43.930Z,21.8
2018-10-12T21:36:45.227Z,21.9
2018-10-12T21:37:46.372Z,21.8
2018-10-12T21:38:47.624Z,21.8
2018-10-12T21:39:48.852Z,21.8
2018-10-12T21:40:50.037Z,21.8
2018-10-12T21:41:51.221Z,21.8
2018-10-12T21:42:52.447Z,21.8
2018-10-12T21:43:53.643Z,21.8
2018-10-12T21:44:54.942Z,21.8
2018-10-12T21:45:56.288Z,21.8
2018-10-12T21:46:57.514Z,21.7
2018-10-12T21:48:01.046Z,21.6
2018-10-12T21:49:02.637Z,21.7
2018-10-12T21:50:04.572Z,21.7
2018-10-12T21:51:07.515Z,21.7
2018-10-12T21:52:20.599Z,21.5
2018-10-12T21:53:23.390Z,21.5
2018-10-12T21:54:27.176Z,21.6
2018-10-12T21:55:31.428Z,21.6
2018-10-12T21:56:32.621Z,21.5
2018-10-12T21:57:34.987Z,21.5
2018-10-12T21:58:36.286Z,21.5
2018-10-12T21:59:37.714Z,21.5
2018-10-12T22:00:39.357Z,21.4
2018-10-12T22:01:48.098Z,21.4
2018-10-12T22:02:49.968Z,21.4
2018-10-12T22:03:51.151Z,21.3
2018-10-12T22:04:52.396Z,21.4
2018-10-12T22:05:53.765Z,21.3
2018-10-12T22:06:55.189Z,21.3
2018-10-12T22:07:56.561Z,21.4
2018-10-12T22:09:03.646Z,21.4
2018-10-12T22:10:08.070Z,21.2
2018-10-12T22:11:09.451Z,21.2
2018-10-12T22:12:10.769Z,21
2018-10-12T22:13:26.836Z,21
2018-10-12T22:14:30.917Z,21
2018-10-12T22:15:34.556Z,21
2018-10-12T22:16:38.251Z,20.9
2018-10-12T22:17:39.718Z,20.9
2018-10-12T22:18:41.003Z,20.9
2018-10-12T22:19:45.523Z,20.9
2018-10-12T22:20:46.943Z,20.8
2018-10-12T22:21:50.616Z,20.8
2018-10-12T22:22:54.275Z,20.8
2018-10-12T22:23:58.674Z,20.7
2018-10-12T22:24:59.923Z,20.6
2018-10-12T22:26:02.391Z,20.6
2018-10-12T22:27:04.638Z,20.5
2018-10-12T22:29:21.888Z,20.6
2018-10-12T22:30:25.337Z,20.6
2018-10-12T22:31:29.703Z,20.5
2018-10-12T22:32:34.136Z,20.5
2018-10-12T22:33:35.482Z,20.5
2018-10-12T22:34:36.785Z,20.4
2018-10-12T22:35:38.227Z,20.5
2018-10-12T22:36:41.126Z,20.4
2018-10-12T22:37:44.764Z,20.5
2018-10-12T22:38:47.370Z,20.3
2018-10-12T22:39:55.933Z,20.3
2018-10-12T22:40:57.170Z,20.3
2018-10-12T22:41:58.411Z,20.3
2018-10-12T22:43:03.384Z,20.3
2018-10-12T22:44:09.114Z,20.3
2018-10-12T22:45:10.327Z,20.3
2018-10-12T22:46:11.554Z,20.3
2018-10-12T22:47:12.784Z,20.3
2018-10-12T22:48:14.127Z,20.3
2018-10-12T22:49:15.384Z,20.3
2018-10-12T22:50:16.680Z,20.3
2018-10-12T22:51:20.300Z,20.3
2018-10-12T22:52:21.700Z,20.3
2018-10-12T22:53:22.983Z,20.2
2018-10-12T22:54:24.277Z,20.2
2018-10-12T22:55:25.584Z,20.3
2018-10-12T22:56:29.304Z,20.3
2018-10-12T22:57:33.634Z,20.3
2018-10-12T22:58:34.893Z,20.4
2018-10-12T22:59:36.688Z,20.4
2018-10-12T23:00:39.219Z,20.3
2018-10-12T23:01:40.625Z,20.3
2018-10-12T23:02:41.811Z,20.3
2018-10-12T23:03:43.111Z,20.2
2018-10-12T23:04:44.398Z,20.2
2018-10-12T23:05:45.580Z,20.2
2018-10-12T23:06:46.816Z,20.1
2018-10-12T23:07:51.133Z,20.1
2018-10-12T23:08:52.360Z,20.1
2018-10-12T23:09:53.539Z,20.2
2018-10-12T23:10:55.099Z,20.2
2018-10-12T23:11:56.279Z,20.1
2018-10-12T23:12:57.574Z,20
2018-10-12T23:13:58.766Z,20.1
2018-10-12T23:15:01.319Z,20.1
2018-10-12T23:16:02.562Z,20.1
2018-10-12T23:17:03.736Z,19.9
2018-10-12T23:18:04.993Z,20
2018-10-12T23:19:06.239Z,20
2018-10-12T23:20:07.418Z,20
2018-10-12T23:21:08.795Z,20
2018-10-12T23:22:09.990Z,19.9
2018-10-12T23:23:11.636Z,19.9
2018-10-12T23:24:12.881Z,19.9
2018-10-12T23:25:14.055Z,19.9
2018-10-12T23:26:21.832Z,19.9
2018-10-12T23:27:23.300Z,19.8
2018-10-12T23:28:27.379Z,20.4
2018-10-12T23:29:28.661Z,20.8
2018-10-12T23:30:29.879Z,21
2018-10-12T23:31:33.314Z,21.2
2018-10-12T23:32:40.111Z,21.3
2018-10-12T23:33:41.451Z,21.4
2018-10-12T23:34:42.795Z,21.4
2018-10-12T23:35:43.997Z,21.4
2018-10-12T23:36:52.511Z,21.4
2018-10-12T23:37:55.953Z,21.5
2018-10-12T23:38:58.519Z,21.5
2018-10-12T23:40:00.313Z,21.5
2018-10-12T23:41:01.527Z,21.6
2018-10-12T23:42:05.798Z,21.5
2018-10-12T23:43:07.219Z,21.5
2018-10-12T23:44:08.418Z,21.6
2018-10-12T23:45:09.678Z,21.6
2018-10-12T23:46:10.915Z,21.6
2018-10-12T23:47:12.198Z,21.6
2018-10-12T23:48:13.471Z,21.6
2018-10-12T23:49:17.002Z,21.6
2018-10-12T23:50:18.740Z,21.5
2018-10-12T23:51:20.025Z,21.6
2018-10-12T23:52:25.144Z,21.6
2018-10-12T23:53:26.351Z,21.6
2018-10-12T23:54:27.762Z,21.6
2018-10-12T23:55:29.007Z,21.6
2018-10-12T23:56:30.260Z,21.5
2018-10-12T23:57:31.498Z,21.6
2018-10-12T23:58:32.943Z,21.6
2018-10-12T23:59:35.240Z,21.5
